createdAt,value
2022-12-03T00:01:22.033Z,78.76
2022-12-03T00:03:49.376Z,78.96
2022-12-03T00:06:17.838Z,79.56
2022-12-03T00:08:45.487Z,79.64
2022-12-03T00:11:12.936Z,79.26
2022-12-03T00:13:40.619Z,79.09
2022-12-03T00:16:08.592Z,78.53
2022-12-03T00:18:36.493Z,79.42
2022-12-03T00:21:04.144Z,79.21
2022-12-03T00:23:33.200Z,79.75
2022-12-03T00:26:02.364Z,79.73
2022-12-03T00:28:30.365Z,79.53
2022-12-03T00:30:57.709Z,78.90
2022-12-03T00:33:25.285Z,79.44
2022-12-03T00:35:52.782Z,78.99
2022-12-03T00:38:20.240Z,79.16
2022-12-03T00:40:47.801Z,78.90
2022-12-03T00:43:15.646Z,79.46
2022-12-03T00:45:43.050Z,79.15
2022-12-03T00:48:10.451Z,79.18
2022-12-03T00:50:38.345Z,79.60
2022-12-03T00:53:05.892Z,79.56
2022-12-03T00:55:33.154Z,79.71
2022-12-03T00:58:01.163Z,78.99
2022-12-03T01:00:28.529Z,79.55
2022-12-03T01:02:55.934Z,79.67
2022-12-03T01:05:23.532Z,79.47
2022-12-03T01:07:51.127Z,78.99
2022-12-03T01:10:18.983Z,78.86
2022-12-03T01:12:46.863Z,79.11
2022-12-03T01:15:14.466Z,78.70
2022-12-03T01:17:41.914Z,79.18
2022-12-03T01:20:10.847Z,79.27
2022-12-03T01:22:38.860Z,79.01
2022-12-03T01:25:06.686Z,79.17
2022-12-03T01:27:34.467Z,79.31
2022-12-03T01:30:02.206Z,78.99
2022-12-03T01:32:31.880Z,78.94
2022-12-03T01:34:59.636Z,79.23
2022-12-03T01:37:27.512Z,79.23
2022-12-03T01:39:55.197Z,78.97
2022-12-03T01:42:42.073Z,79.29
2022-12-03T01:45:22.825Z,79.93
2022-12-03T01:47:50.835Z,79.04
2022-12-03T01:50:23.886Z,79.42
2022-12-03T01:52:52.608Z,78.77
2022-12-03T01:55:23.143Z,79.39
2022-12-03T01:57:54.279Z,79.33
2022-12-03T02:00:29.426Z,79.26
2022-12-03T02:03:00.725Z,79.62
2022-12-03T02:05:31.242Z,79.59
2022-12-03T02:07:59.545Z,79.47
2022-12-03T02:10:33.199Z,79.58
2022-12-03T02:13:06.638Z,78.96
2022-12-03T02:15:35.368Z,79.48
2022-12-03T02:18:03.361Z,79.38
2022-12-03T02:20:36.548Z,79.64
2022-12-03T02:23:21.810Z,79.55
2022-12-03T02:25:49.127Z,79.65
2022-12-03T02:28:16.676Z,79.57
2022-12-03T02:30:44.206Z,79.69
2022-12-03T02:33:12.086Z,79.58
2022-12-03T02:35:40.527Z,79.39
2022-12-03T02:38:29.546Z,79.30
2022-12-03T02:41:00.951Z,79.40
2022-12-03T02:43:28.589Z,79.27
2022-12-03T02:46:00.420Z,79.95
2022-12-03T02:48:32.221Z,79.43
2022-12-03T02:51:02.448Z,79.89
2022-12-03T02:53:34.588Z,79.33
2022-12-03T02:56:03.665Z,79.81
2022-12-03T02:58:33.219Z,80.01
2022-12-03T03:01:02.966Z,79.41
2022-12-03T03:03:32.611Z,79.48
2022-12-03T03:06:02.928Z,79.85
2022-12-03T03:08:31.451Z,79.52
2022-12-03T03:11:01.555Z,79.52
2022-12-03T03:13:31.229Z,79.83
2022-12-03T03:15:58.919Z,79.29
2022-12-03T03:18:26.736Z,79.79
2022-12-03T03:20:54.380Z,79.83
2022-12-03T03:23:24.125Z,79.87
2022-12-03T03:26:00.256Z,79.93
2022-12-03T03:28:28.567Z,79.85
2022-12-03T03:30:56.502Z,79.27
2022-12-03T03:33:24.254Z,79.49
2022-12-03T03:35:51.895Z,79.16
2022-12-03T03:38:20.706Z,79.11
2022-12-03T03:40:51.144Z,80.17
2022-12-03T03:43:20.297Z,80.29
2022-12-03T03:45:48.130Z,80.31
2022-12-03T03:48:16.348Z,80.38
2022-12-03T03:50:44.813Z,80.00
2022-12-03T03:53:13.063Z,79.51
2022-12-03T03:55:42.001Z,80.11
2022-12-03T03:58:09.957Z,79.57
2022-12-03T04:00:37.693Z,79.56
2022-12-03T04:03:06.564Z,80.47
2022-12-03T04:05:34.170Z,80.19
2022-12-03T04:08:01.778Z,80.51
2022-12-03T04:10:48.356Z,80.05
2022-12-03T04:13:15.913Z,79.83
2022-12-03T04:15:43.358Z,79.82
2022-12-03T04:18:29.550Z,79.60
2022-12-03T04:21:18.503Z,79.94
2022-12-03T04:23:46.411Z,79.88
2022-12-03T04:26:32.636Z,79.92
2022-12-03T04:29:00.276Z,80.11
2022-12-03T04:31:46.260Z,79.26
2022-12-03T04:34:32.659Z,79.98
2022-12-03T04:37:00.388Z,79.90
2022-12-03T04:39:27.689Z,79.18
2022-12-03T04:41:55.367Z,80.22
2022-12-03T04:44:37.732Z,79.49
2022-12-03T04:47:10.492Z,79.93
2022-12-03T04:49:41.187Z,79.69
2022-12-03T04:52:09.700Z,79.81
2022-12-03T04:54:38.879Z,79.66
2022-12-03T04:57:07.223Z,79.92
2022-12-03T04:59:35.992Z,80.03
2022-12-03T05:02:04.721Z,79.81
2022-12-03T05:04:34.236Z,79.81
2022-12-03T05:07:01.674Z,80.32
2022-12-03T05:09:29.278Z,80.11
2022-12-03T05:11:57.063Z,79.90
2022-12-03T05:14:24.640Z,79.85
2022-12-03T05:16:52.145Z,80.21
2022-12-03T05:19:19.868Z,79.96
2022-12-03T05:21:47.149Z,80.13
2022-12-03T05:24:15.023Z,79.53
2022-12-03T05:26:42.852Z,80.29
2022-12-03T05:29:10.121Z,79.97
2022-12-03T05:31:37.907Z,79.31
2022-12-03T05:34:06.104Z,79.23
2022-12-03T05:36:33.444Z,79.42
2022-12-03T05:39:00.854Z,79.84
2022-12-03T05:41:47.005Z,79.89
2022-12-03T05:44:20.108Z,79.89
2022-12-03T05:46:48.109Z,80.32
2022-12-03T05:49:15.976Z,79.81
2022-12-03T05:51:43.568Z,79.50
2022-12-03T05:54:10.882Z,79.63
2022-12-03T05:56:38.909Z,79.87
2022-12-03T05:59:06.426Z,79.49
2022-12-03T06:01:34.564Z,79.56
2022-12-03T06:04:02.276Z,79.84
2022-12-03T06:06:29.872Z,79.48
2022-12-03T06:08:57.685Z,79.57
2022-12-03T06:11:25.349Z,79.69
2022-12-03T06:13:52.775Z,79.58
2022-12-03T06:16:20.657Z,80.09
2022-12-03T06:18:48.547Z,79.98
2022-12-03T06:21:16.174Z,79.89
2022-12-03T06:23:45.003Z,79.79
2022-12-03T06:26:13.439Z,80.70
2022-12-03T06:28:45.732Z,80.08
2022-12-03T06:31:13.969Z,80.35
2022-12-03T06:33:41.627Z,80.40
2022-12-03T06:36:09.579Z,79.89
2022-12-03T06:38:36.834Z,79.49
2022-12-03T06:41:04.520Z,79.95
2022-12-03T06:43:32.418Z,80.07
2022-12-03T06:45:59.795Z,79.50
2022-12-03T06:48:27.594Z,79.44
2022-12-03T06:50:55.360Z,79.47
2022-12-03T06:53:22.986Z,79.92
2022-12-03T06:55:50.655Z,80.30
2022-12-03T06:58:18.272Z,79.72
2022-12-03T07:00:45.620Z,79.05
2022-12-03T07:03:13.643Z,79.72
2022-12-03T07:05:41.162Z,79.43
2022-12-03T07:08:08.825Z,79.84
2022-12-03T07:10:36.996Z,79.02
2022-12-03T07:13:04.575Z,78.33
2022-12-03T07:15:31.877Z,78.22
2022-12-03T07:17:59.859Z,78.45
2022-12-03T07:20:27.208Z,78.40
2022-12-03T07:22:54.418Z,78.50
2022-12-03T07:25:23.678Z,77.63
2022-12-03T07:27:51.700Z,79.40
2022-12-03T07:30:19.213Z,77.93
2022-12-03T07:32:46.660Z,78.15
2022-12-03T07:35:14.178Z,79.01
2022-12-03T07:37:41.723Z,78.02
2022-12-03T07:40:10.389Z,79.08
2022-12-03T07:42:38.394Z,77.71
2022-12-03T07:45:06.761Z,78.26
2022-12-03T07:47:34.297Z,77.75
2022-12-03T07:50:02.049Z,78.88
2022-12-03T07:52:30.301Z,77.96
2022-12-03T07:54:57.861Z,78.63
2022-12-03T07:57:25.233Z,78.66
2022-12-03T07:59:52.649Z,77.67
2022-12-03T08:02:21.870Z,79.26
2022-12-03T08:04:49.705Z,77.96
2022-12-03T08:07:17.236Z,79.09
2022-12-03T08:09:45.005Z,78.96
2022-12-03T08:12:18.532Z,79.36
2022-12-03T08:14:46.215Z,78.01
2022-12-03T08:17:15.284Z,79.24
2022-12-03T08:19:47.196Z,78.16
2022-12-03T08:22:16.100Z,79.31
2022-12-03T08:24:44.180Z,78.48
2022-12-03T08:27:19.324Z,77.79
2022-12-03T08:29:46.997Z,77.83
2022-12-03T08:32:14.645Z,78.15
2022-12-03T08:34:44.423Z,78.05
2022-12-03T08:37:21.547Z,78.65
2022-12-03T08:39:51.118Z,78.01
2022-12-03T08:42:43.720Z,78.79
2022-12-03T08:45:29.732Z,78.26
2022-12-03T08:48:03.099Z,78.64
2022-12-03T08:50:39.161Z,78.94
2022-12-03T08:53:16.016Z,79.22
2022-12-03T08:55:48.200Z,78.97
2022-12-03T08:58:30.990Z,78.86
2022-12-03T09:01:06.103Z,78.36
2022-12-03T09:03:33.859Z,78.22
2022-12-03T09:06:01.186Z,78.34
2022-12-03T09:08:28.792Z,79.03
2022-12-03T09:10:56.645Z,78.82
2022-12-03T09:13:24.180Z,78.22
2022-12-03T09:15:51.808Z,79.07
2022-12-03T09:18:19.395Z,78.73
2022-12-03T09:20:47.090Z,78.98
2022-12-03T09:23:14.756Z,78.53
2022-12-03T09:25:42.482Z,78.97
2022-12-03T09:28:10.475Z,78.63
2022-12-03T09:30:37.725Z,79.08
2022-12-03T09:33:05.100Z,78.75
2022-12-03T09:35:33.590Z,78.84
2022-12-03T09:38:01.187Z,78.72
2022-12-03T09:40:29.371Z,78.96
2022-12-03T09:42:58.799Z,79.03
2022-12-03T09:45:26.202Z,78.67
2022-12-03T09:47:54.818Z,78.69
2022-12-03T09:50:26.921Z,79.49
2022-12-03T09:52:57.336Z,78.68
2022-12-03T09:55:27.715Z,78.84
2022-12-03T09:57:56.747Z,79.36
2022-12-03T10:00:27.568Z,79.33
2022-12-03T10:02:58.363Z,79.10
2022-12-03T10:05:26.075Z,79.44
2022-12-03T10:07:53.797Z,79.36
2022-12-03T10:10:23.945Z,79.40
2022-12-03T10:12:52.651Z,79.26
2022-12-03T10:15:23.464Z,78.89
2022-12-03T10:17:54.684Z,79.47
2022-12-03T10:20:24.374Z,79.60
2022-12-03T10:22:52.022Z,79.72
2022-12-03T10:25:22.912Z,79.91
2022-12-03T10:27:58.840Z,79.27
2022-12-03T10:30:28.759Z,79.57
2022-12-03T10:32:58.497Z,79.20
2022-12-03T10:35:37.863Z,79.18
2022-12-03T10:38:08.495Z,79.20
2022-12-03T10:40:38.633Z,79.39
2022-12-03T10:43:18.285Z,79.93
2022-12-03T10:45:46.863Z,79.50
2022-12-03T10:48:17.673Z,79.63
2022-12-03T10:51:05.699Z,79.75
2022-12-03T10:53:36.019Z,79.65
2022-12-03T10:56:06.255Z,79.71
2022-12-03T10:58:39.889Z,79.38
2022-12-03T11:01:16.125Z,79.77
2022-12-03T11:03:43.825Z,79.73
2022-12-03T11:06:17.515Z,79.42
2022-12-03T11:08:52.996Z,79.83
2022-12-03T11:11:29.223Z,79.48
2022-12-03T11:14:04.583Z,78.79
2022-12-03T11:16:41.040Z,79.65
2022-12-03T11:19:44.092Z,80.15
2022-12-03T11:22:11.766Z,79.66
2022-12-03T11:24:40.715Z,80.20
2022-12-03T11:27:18.793Z,79.72
2022-12-03T11:29:52.211Z,79.70
2022-12-03T11:32:40.735Z,79.80
2022-12-03T11:35:24.315Z,80.03
2022-12-03T11:37:52.600Z,79.90
2022-12-03T11:40:20.041Z,80.26
2022-12-03T11:42:48.930Z,79.81
2022-12-03T11:45:31.020Z,80.36
2022-12-03T11:47:58.385Z,80.22
2022-12-03T11:50:58.236Z,80.20
2022-12-03T11:53:27.372Z,80.59
2022-12-03T11:56:09.577Z,80.62
2022-12-03T11:58:39.532Z,80.38
2022-12-03T12:01:08.629Z,80.71
2022-12-03T12:03:42.399Z,80.57
2022-12-03T12:06:19.124Z,80.52
2022-12-03T12:08:52.617Z,80.95
2022-12-03T12:11:26.309Z,81.06
2022-12-03T12:13:56.997Z,81.21
2022-12-03T12:16:47.721Z,80.66
2022-12-03T12:19:41.625Z,80.82
2022-12-03T12:22:16.045Z,80.18
2022-12-03T12:24:51.930Z,80.98
2022-12-03T12:27:31.012Z,80.91
2022-12-03T12:30:01.525Z,81.02
2022-12-03T12:33:05.906Z,80.91
2022-12-03T12:35:33.516Z,80.84
2022-12-03T12:38:07.092Z,80.94
2022-12-03T12:40:37.045Z,81.24
2022-12-03T12:43:25.900Z,81.16
2022-12-03T12:46:13.611Z,81.56
2022-12-03T12:48:48.065Z,81.64
2022-12-03T12:51:20.761Z,81.61
2022-12-03T12:53:50.005Z,81.57
2022-12-03T12:56:20.469Z,81.70
2022-12-03T12:58:48.630Z,81.79
2022-12-03T13:01:26.622Z,81.19
2022-12-03T13:03:54.876Z,82.08
2022-12-03T13:06:26.572Z,81.84
2022-12-03T13:08:54.523Z,82.39
2022-12-03T13:11:25.683Z,81.47
2022-12-03T13:13:53.415Z,81.81
2022-12-03T13:16:29.006Z,82.30
2022-12-03T13:19:01.764Z,81.31
2022-12-03T13:21:40.768Z,81.91
2022-12-03T13:24:34.605Z,81.70
2022-12-03T13:27:14.084Z,81.71
2022-12-03T13:29:42.054Z,81.91
2022-12-03T13:32:29.612Z,82.31
2022-12-03T13:35:07.865Z,82.62
2022-12-03T13:37:35.484Z,82.14
2022-12-03T13:40:28.106Z,82.27
2022-12-03T13:42:55.614Z,82.93
2022-12-03T13:45:25.015Z,82.31
2022-12-03T13:47:57.173Z,82.75
2022-12-03T13:50:42.165Z,82.83
2022-12-03T13:53:35.571Z,82.03
2022-12-03T13:56:31.879Z,82.53
2022-12-03T13:59:01.976Z,83.03
2022-12-03T14:01:30.504Z,83.25
2022-12-03T14:03:57.985Z,83.51
2022-12-03T14:06:25.764Z,83.37
2022-12-03T14:08:53.561Z,83.27
2022-12-03T14:11:40.272Z,83.22
2022-12-03T14:14:07.951Z,82.95
2022-12-03T14:16:35.676Z,83.16
2022-12-03T14:19:04.261Z,83.35
2022-12-03T14:21:31.750Z,82.93
2022-12-03T14:23:59.129Z,83.69
2022-12-03T14:26:27.081Z,83.35
2022-12-03T14:28:54.851Z,83.35
2022-12-03T14:31:22.261Z,83.30
2022-12-03T14:33:50.059Z,82.78
2022-12-03T14:36:17.810Z,83.35
2022-12-03T14:38:45.413Z,83.60
2022-12-03T14:41:31.868Z,82.97
2022-12-03T14:43:59.207Z,83.49
2022-12-03T14:46:26.776Z,83.86
2022-12-03T14:48:54.723Z,82.97
2022-12-03T14:51:22.437Z,83.82
2022-12-03T14:53:49.933Z,83.09
2022-12-03T14:56:19.697Z,83.72
2022-12-03T14:58:47.388Z,84.03
2022-12-03T15:01:15.383Z,82.91
2022-12-03T15:03:43.059Z,83.71
2022-12-03T15:06:10.541Z,83.97
2022-12-03T15:08:38.368Z,83.27
2022-12-03T15:11:06.862Z,83.29
2022-12-03T15:13:35.494Z,83.16
2022-12-03T15:16:03.476Z,84.19
2022-12-03T15:18:31.583Z,83.46
2022-12-03T15:20:59.184Z,83.41
2022-12-03T15:23:26.525Z,83.66
2022-12-03T15:25:54.282Z,83.92
2022-12-03T15:28:23.204Z,83.96
2022-12-03T15:30:51.032Z,84.21
2022-12-03T15:33:18.963Z,84.41
2022-12-03T15:35:46.370Z,83.80
2022-12-03T15:38:13.770Z,84.05
2022-12-03T15:40:41.652Z,84.12
2022-12-03T15:43:10.023Z,83.92
2022-12-03T15:45:37.621Z,83.81
2022-12-03T15:48:05.851Z,84.28
2022-12-03T15:50:38.471Z,84.07
2022-12-03T15:53:07.347Z,84.25
2022-12-03T15:55:35.407Z,83.78
2022-12-03T15:58:02.649Z,83.30
2022-12-03T16:00:30.284Z,83.81
2022-12-03T16:02:58.003Z,84.05
2022-12-03T16:05:25.489Z,83.62
2022-12-03T16:07:53.236Z,83.28
2022-12-03T16:10:21.678Z,83.15
2022-12-03T16:12:49.410Z,83.94
2022-12-03T16:15:19.859Z,82.82
2022-12-03T16:17:49.787Z,83.56
2022-12-03T16:20:17.084Z,82.75
2022-12-03T16:22:44.868Z,84.18
2022-12-03T16:25:12.463Z,83.97
2022-12-03T16:27:41.185Z,83.84
2022-12-03T16:30:09.928Z,83.18
2022-12-03T16:32:37.659Z,83.37
2022-12-03T16:35:05.669Z,83.55
2022-12-03T16:37:33.420Z,83.76
2022-12-03T16:40:01.495Z,83.68
2022-12-03T16:42:30.436Z,82.97
2022-12-03T16:45:04.064Z,83.26
2022-12-03T16:47:34.303Z,83.53
2022-12-03T16:50:03.001Z,82.87
2022-12-03T16:52:30.732Z,82.72
2022-12-03T16:54:58.245Z,81.98
2022-12-03T16:57:31.755Z,83.08
2022-12-03T17:00:01.582Z,83.36
2022-12-03T17:02:31.437Z,82.58
2022-12-03T17:04:58.939Z,82.13
2022-12-03T17:07:26.641Z,82.19
2022-12-03T17:09:54.583Z,81.68
2022-12-03T17:12:22.083Z,81.62
2022-12-03T17:14:50.142Z,81.80
2022-12-03T17:17:18.530Z,81.76
2022-12-03T17:19:45.852Z,81.48
2022-12-03T17:22:14.177Z,82.07
2022-12-03T17:24:44.275Z,81.73
2022-12-03T17:27:12.987Z,81.56
2022-12-03T17:29:40.893Z,81.79
2022-12-03T17:32:09.919Z,81.42
2022-12-03T17:34:37.234Z,81.43
2022-12-03T17:37:04.778Z,81.24
2022-12-03T17:39:32.682Z,81.26
2022-12-03T17:42:00.334Z,80.58
2022-12-03T17:44:28.275Z,80.83
2022-12-03T17:46:55.705Z,80.99
2022-12-03T17:49:28.312Z,81.74
2022-12-03T17:51:58.560Z,81.01
2022-12-03T17:54:43.308Z,80.72
2022-12-03T17:57:14.160Z,80.78
2022-12-03T17:59:41.822Z,80.48
2022-12-03T18:02:09.587Z,80.78
2022-12-03T18:04:37.872Z,81.07
2022-12-03T18:07:09.116Z,81.24
2022-12-03T18:09:36.792Z,80.74
2022-12-03T18:12:04.780Z,81.23
2022-12-03T18:14:32.283Z,81.32
2022-12-03T18:16:59.742Z,81.14
2022-12-03T18:19:27.435Z,81.01
2022-12-03T18:21:55.314Z,81.33
2022-12-03T18:24:23.013Z,80.95
2022-12-03T18:26:51.077Z,81.36
2022-12-03T18:29:18.618Z,81.39
2022-12-03T18:31:48.387Z,81.60
2022-12-03T18:34:16.096Z,81.58
2022-12-03T18:36:43.727Z,81.83
2022-12-03T18:39:20.809Z,81.46
2022-12-03T18:41:48.772Z,81.41
2022-12-03T18:44:16.202Z,80.94
2022-12-03T18:46:59.388Z,81.78
2022-12-03T18:49:27.402Z,82.12
2022-12-03T18:51:59.344Z,81.84
2022-12-03T18:54:27.369Z,81.53
2022-12-03T18:56:55.013Z,81.26
2022-12-03T18:59:22.947Z,82.05
2022-12-03T19:01:50.921Z,81.48
2022-12-03T19:04:18.205Z,82.40
2022-12-03T19:06:48.881Z,81.44
2022-12-03T19:09:16.642Z,81.74
2022-12-03T19:11:44.567Z,81.54
2022-12-03T19:14:12.480Z,81.53
2022-12-03T19:16:41.153Z,81.70
2022-12-03T19:19:09.988Z,82.04
2022-12-03T19:21:37.885Z,81.38
2022-12-03T19:26:55.840Z,81.56
2022-12-03T19:29:23.938Z,81.30
2022-12-03T19:31:52.163Z,81.46
2022-12-03T19:34:21.004Z,81.29
2022-12-03T19:36:48.768Z,81.66
2022-12-03T19:39:16.620Z,81.54
2022-12-03T19:41:44.958Z,81.43
2022-12-03T19:44:14.548Z,81.45
2022-12-03T19:46:42.708Z,80.84
2022-12-03T19:49:10.967Z,81.75
2022-12-03T19:51:38.941Z,80.79
2022-12-03T19:54:07.953Z,80.96
2022-12-03T19:56:35.787Z,81.37
2022-12-03T19:59:03.736Z,80.95
2022-12-03T20:01:33.808Z,80.90
2022-12-03T20:04:03.769Z,81.66
2022-12-03T20:06:34.308Z,81.37
2022-12-03T20:09:06.669Z,80.93
2022-12-03T20:11:35.572Z,80.99
2022-12-03T20:14:06.537Z,81.13
2022-12-03T20:16:34.485Z,81.16
2022-12-03T20:19:05.246Z,81.02
2022-12-03T20:21:34.502Z,80.76
2022-12-03T20:24:02.464Z,80.96
2022-12-03T20:26:30.071Z,80.45
2022-12-03T20:28:58.433Z,80.75
2022-12-03T20:31:29.271Z,80.87
2022-12-03T20:33:59.660Z,80.66
2022-12-03T20:36:29.379Z,80.03
2022-12-03T20:38:59.852Z,81.00
2022-12-03T20:41:27.869Z,80.50
2022-12-03T20:43:55.595Z,80.45
2022-12-03T20:46:27.615Z,80.48
2022-12-03T20:48:56.266Z,80.81
2022-12-03T20:51:27.379Z,80.16
2022-12-03T20:53:56.122Z,80.65
2022-12-03T20:56:31.466Z,80.17
2022-12-03T20:59:07.945Z,80.18
2022-12-03T21:01:36.538Z,79.57
2022-12-03T21:04:05.614Z,80.41
2022-12-03T21:06:36.185Z,80.24
2022-12-03T21:09:06.454Z,79.65
2022-12-03T21:11:35.986Z,80.33
2022-12-03T21:14:04.798Z,80.07
2022-12-03T21:19:23.749Z,79.68
2022-12-03T21:21:51.384Z,79.81
2022-12-03T21:24:19.121Z,79.10
2022-12-03T21:26:46.815Z,80.21
2022-12-03T21:29:14.252Z,80.44
2022-12-03T21:31:41.874Z,80.17
2022-12-03T21:34:09.654Z,79.83
2022-12-03T21:36:37.303Z,79.89
2022-12-03T21:39:05.758Z,79.87
2022-12-03T21:41:35.349Z,80.01
2022-12-03T21:44:03.263Z,79.56
2022-12-03T21:47:12.280Z,80.43
2022-12-03T21:49:19.518Z,80.26
2022-12-03T21:51:47.433Z,80.30
2022-12-03T21:54:15.349Z,80.30
2022-12-03T21:56:43.329Z,79.48
2022-12-03T21:59:11.095Z,79.64
2022-12-03T22:01:42.764Z,80.01
2022-12-03T22:04:13.444Z,80.02
2022-12-03T22:06:40.717Z,79.24
2022-12-03T22:09:07.985Z,80.06
2022-12-03T22:11:35.987Z,80.14
2022-12-03T22:14:04.888Z,79.30
2022-12-03T22:16:32.588Z,79.67
2022-12-03T22:19:00.434Z,79.88
2022-12-03T22:21:27.913Z,79.93
2022-12-03T22:23:56.069Z,79.39
2022-12-03T22:26:23.931Z,79.81
2022-12-03T22:28:51.610Z,79.34
2022-12-03T22:31:19.312Z,79.85
2022-12-03T22:33:48.672Z,79.62
2022-12-03T22:36:21.084Z,79.11
2022-12-03T22:38:50.905Z,79.70
2022-12-03T22:41:20.075Z,79.97
2022-12-03T22:43:48.376Z,79.80
2022-12-03T22:46:17.048Z,78.97
2022-12-03T22:48:46.128Z,78.92
2022-12-03T22:51:22.195Z,79.78
2022-12-03T22:53:55.803Z,79.48
2022-12-03T22:56:23.930Z,79.43
2022-12-03T22:58:51.722Z,78.94
2022-12-03T23:01:23.914Z,79.65
2022-12-03T23:03:51.812Z,79.30
2022-12-03T23:06:19.663Z,79.93
2022-12-03T23:08:47.447Z,79.55
2022-12-03T23:11:15.951Z,79.89
2022-12-03T23:13:43.878Z,79.35
2022-12-03T23:16:16.090Z,79.58
2022-12-03T23:18:43.810Z,79.83
2022-12-03T23:21:16.938Z,79.68
2022-12-03T23:23:44.540Z,79.35
2022-12-03T23:26:13.549Z,79.61
2022-12-03T23:28:42.241Z,79.97
2022-12-03T23:31:22.311Z,79.68
2022-12-03T23:33:51.130Z,79.59
2022-12-03T23:36:19.120Z,79.42
2022-12-03T23:38:47.040Z,79.23
2022-12-03T23:41:18.320Z,80.14
2022-12-03T23:43:45.952Z,79.55
2022-12-03T23:46:18.129Z,79.81
2022-12-03T23:48:45.879Z,79.53
2022-12-03T23:51:16.415Z,79.65
2022-12-03T23:53:44.928Z,79.65
2022-12-03T23:56:16.838Z,79.51
2022-12-03T23:58:45.163Z,78.55
